createdAt,value
2017-11-10T00:00:49.400Z,6.90
2017-11-10T00:03:58.257Z,6.90
2017-11-10T00:07:07.271Z,6.90
2017-11-10T00:10:15.499Z,6.80
2017-11-10T00:13:24.931Z,6.80
2017-11-10T00:16:33.186Z,6.80
2017-11-10T00:19:42.557Z,6.90
2017-11-10T00:22:50.999Z,6.80
2017-11-10T00:26:00.088Z,6.70
2017-11-10T00:29:09.174Z,6.70
2017-11-10T00:32:18.555Z,6.80
2017-11-10T00:35:26.478Z,7.00
2017-11-10T00:38:35.748Z,7.00
2017-11-10T00:41:46.130Z,6.90
2017-11-10T00:44:56.573Z,6.90
2017-11-10T00:48:04.604Z,6.90
2017-11-10T00:51:13.907Z,6.70
2017-11-10T00:54:24.600Z,6.70
2017-11-10T00:57:34.844Z,6.70
2017-11-10T01:00:44.251Z,6.70
2017-11-10T01:03:53.937Z,7.00
2017-11-10T01:07:02.971Z,7.00
2017-11-10T01:10:13.982Z,6.70
2017-11-10T01:13:22.473Z,6.70
2017-11-10T01:16:32.941Z,6.70
2017-11-10T01:19:42.017Z,6.60
2017-11-10T01:22:51.259Z,6.60
2017-11-10T01:25:59.421Z,6.60
2017-11-10T01:29:09.036Z,6.60
2017-11-10T01:32:17.929Z,6.40
2017-11-10T01:35:27.183Z,6.40
2017-11-10T01:38:35.542Z,6.50
2017-11-10T01:41:45.243Z,6.50
2017-11-10T01:44:55.251Z,6.50
2017-11-10T01:48:48.352Z,6.60
2017-11-10T01:51:59.874Z,6.80
2017-11-10T01:55:10.688Z,6.80
2017-11-10T01:58:19.329Z,6.80
2017-11-10T02:01:29.545Z,6.80
2017-11-10T02:04:37.843Z,6.70
2017-11-10T02:07:48.138Z,6.70
2017-11-10T02:10:59.418Z,6.40
2017-11-10T02:14:09.828Z,6.40
2017-11-10T02:17:18.912Z,6.40
2017-11-10T02:20:29.479Z,6.50
2017-11-10T02:23:37.410Z,6.50
2017-11-10T02:26:47.819Z,6.70
2017-11-10T02:29:58.057Z,6.70
2017-11-10T02:33:08.463Z,6.50
2017-11-10T02:36:17.725Z,6.50
2017-11-10T02:39:27.094Z,6.60
2017-11-10T02:42:35.039Z,6.60
2017-11-10T02:45:46.043Z,6.70
2017-11-10T02:48:54.781Z,6.60
2017-11-10T02:52:04.156Z,6.60
2017-11-10T02:55:13.133Z,6.60
2017-11-10T02:58:22.529Z,6.60
2017-11-10T03:01:32.828Z,6.70
2017-11-10T03:04:43.039Z,6.80
2017-11-10T03:07:53.456Z,6.80
2017-11-10T03:11:02.942Z,6.90
2017-11-10T03:14:12.751Z,7.00
2017-11-10T03:17:21.778Z,7.00
2017-11-10T03:20:30.504Z,6.90
2017-11-10T03:23:39.943Z,7.00
2017-11-10T03:26:49.314Z,7.00
2017-11-10T03:29:59.432Z,6.90
2017-11-10T03:33:07.594Z,6.70
2017-11-10T03:36:16.788Z,6.60
2017-11-10T03:39:26.433Z,6.70
2017-11-10T03:42:36.916Z,6.50
2017-11-10T03:45:44.724Z,6.60
2017-11-10T03:48:54.150Z,6.60
2017-11-10T03:52:01.198Z,6.60
2017-11-10T03:55:10.347Z,6.40
2017-11-10T03:58:20.457Z,6.50
2017-11-10T04:01:32.240Z,6.40
2017-11-10T04:04:40.097Z,6.40
2017-11-10T04:07:50.429Z,6.50
2017-11-10T04:10:58.673Z,6.60
2017-11-10T04:14:07.792Z,6.70
2017-11-10T04:17:16.603Z,6.60
2017-11-10T04:20:27.348Z,6.70
2017-11-10T04:23:37.599Z,6.60
2017-11-10T04:26:46.999Z,6.70
2017-11-10T04:29:55.221Z,6.80
2017-11-10T04:39:45.340Z,6.80
2017-11-10T04:42:54.328Z,6.70
2017-11-10T04:46:05.870Z,6.60
2017-11-10T04:49:14.106Z,6.60
2017-11-10T04:52:23.671Z,6.50
2017-11-10T04:55:32.488Z,6.50
2017-11-10T04:58:42.675Z,6.50
2017-11-10T05:01:50.903Z,6.40
2017-11-10T05:05:00.187Z,6.30
2017-11-10T05:08:08.578Z,6.30
2017-11-10T05:11:18.928Z,6.30
2017-11-10T05:14:28.354Z,6.20
2017-11-10T05:17:37.515Z,6.40
2017-11-10T05:20:45.742Z,6.60
2017-11-10T05:23:55.350Z,6.60
2017-11-10T05:27:05.221Z,6.70
2017-11-10T05:30:14.574Z,6.80
2017-11-10T05:33:22.866Z,6.80
2017-11-10T05:36:32.473Z,6.80
2017-11-10T05:39:41.526Z,6.50
2017-11-10T05:42:51.712Z,6.50
2017-11-10T05:46:00.101Z,6.60
2017-11-10T05:49:09.164Z,6.70
2017-11-10T05:52:17.311Z,6.60
2017-11-10T05:55:26.371Z,6.60
2017-11-10T05:58:34.527Z,6.70
2017-11-10T06:01:43.987Z,6.60
2017-11-10T06:04:52.126Z,6.60
2017-11-10T06:08:01.852Z,6.50
2017-11-10T06:11:09.791Z,6.40
2017-11-10T06:14:19.109Z,6.40
2017-11-10T06:17:27.370Z,6.40
2017-11-10T06:30:40.704Z,6.50
2017-11-10T06:33:12.883Z,6.60
2017-11-10T06:35:43.707Z,6.60
2017-11-10T06:38:14.799Z,6.40
2017-11-10T06:40:47.025Z,6.50
2017-11-10T06:43:17.898Z,6.50
2017-11-10T06:45:48.907Z,6.60
2017-11-10T06:48:19.761Z,6.70
2017-11-10T06:50:50.751Z,6.80
2017-11-10T06:53:21.974Z,6.90
2017-11-10T06:55:53.079Z,6.90
2017-11-10T06:58:24.122Z,6.90
2017-11-10T07:00:55.287Z,6.90
2017-11-10T07:03:26.312Z,7.00
2017-11-10T07:05:57.233Z,7.10
2017-11-10T07:08:28.674Z,7.00
2017-11-10T07:10:59.601Z,7.10
2017-11-10T07:13:30.732Z,7.20
2017-11-10T07:16:02.244Z,7.20
2017-11-10T07:18:33.277Z,7.20
2017-11-10T07:21:04.315Z,7.10
2017-11-10T07:23:35.655Z,7.00
2017-11-10T07:26:06.446Z,7.00
2017-11-10T08:50:38.241Z,7.10
2017-11-10T08:53:08.978Z,7.50
2017-11-10T08:55:40.299Z,7.40
2017-11-10T08:58:11.284Z,7.60
2017-11-10T09:00:42.154Z,7.60
2017-11-10T09:03:13.275Z,7.80
2017-11-10T09:05:44.417Z,7.70
2017-11-10T09:08:16.199Z,8.10
2017-11-10T09:10:47.246Z,8.00
2017-11-10T09:13:18.772Z,8.10
2017-11-10T09:15:50.625Z,8.00
2017-11-10T09:18:22.531Z,8.20
2017-11-10T09:20:53.578Z,8.20
2017-11-10T09:23:24.986Z,8.10
2017-11-10T09:25:56.281Z,7.90
2017-11-10T09:28:27.381Z,8.00
2017-11-10T09:30:59.740Z,8.00
2017-11-10T09:33:30.935Z,8.00
2017-11-10T09:36:01.975Z,8.30
2017-11-10T09:38:33.242Z,8.40
2017-11-10T09:41:04.434Z,8.60
2017-11-10T09:43:35.474Z,8.80
2017-11-10T09:46:06.985Z,9.00
2017-11-10T09:48:41.915Z,9.10
2017-11-10T09:51:17.128Z,9.40
2017-11-10T09:53:48.160Z,9.60
2017-11-10T09:56:21.264Z,10.40
2017-11-10T09:58:53.549Z,10.70
2017-11-10T10:01:24.809Z,10.70
2017-11-10T10:03:56.578Z,10.50
2017-11-10T10:06:27.990Z,10.50
2017-11-10T10:08:59.252Z,10.40
2017-11-10T10:11:30.250Z,10.70
2017-11-10T10:14:01.430Z,11.00
2017-11-10T10:16:32.517Z,10.80
2017-11-10T10:19:04.644Z,10.90
2017-11-10T10:21:36.295Z,10.90
2017-11-10T10:24:07.528Z,10.50
2017-11-10T10:26:38.707Z,10.90
2017-11-10T10:29:09.913Z,11.30
2017-11-10T10:31:40.967Z,11.20
2017-11-10T10:34:12.335Z,11.30
2017-11-10T10:36:43.481Z,11.40
2017-11-10T10:39:15.668Z,10.90
2017-11-10T10:41:47.664Z,10.80
2017-11-10T10:44:19.620Z,10.80
2017-11-10T10:46:51.196Z,10.60
2017-11-10T10:49:23.263Z,10.30
2017-11-10T10:51:54.020Z,10.20
2017-11-10T10:54:24.939Z,10.50
2017-11-10T10:56:56.262Z,10.50
2017-11-10T10:59:27.344Z,10.50
2017-11-10T11:01:58.229Z,10.60
2017-11-10T11:04:29.297Z,10.70
2017-11-10T11:07:00.218Z,10.40
2017-11-10T11:09:31.023Z,10.30
2017-11-10T11:12:02.410Z,10.20
2017-11-10T11:14:33.337Z,10.10
2017-11-10T11:17:04.324Z,10.30
2017-11-10T11:19:35.584Z,10.20
2017-11-10T11:22:06.450Z,10.30
2017-11-10T11:24:38.162Z,10.60
2017-11-10T11:27:09.261Z,10.50
2017-11-10T11:29:40.468Z,10.60
2017-11-10T11:32:11.516Z,10.40
2017-11-10T11:34:42.749Z,10.20
2017-11-10T11:37:14.323Z,10.30
2017-11-10T11:39:45.544Z,10.30
2017-11-10T11:42:16.663Z,10.30
2017-11-10T11:44:47.647Z,10.70
2017-11-10T11:47:19.593Z,11.00
2017-11-10T11:49:50.712Z,11.00
2017-11-10T11:52:21.789Z,11.10
2017-11-10T11:54:53.767Z,11.20
2017-11-10T11:57:24.577Z,11.20
2017-11-10T11:59:56.418Z,10.90
2017-11-10T12:02:28.224Z,10.50
2017-11-10T12:04:59.746Z,10.60
2017-11-10T12:07:30.804Z,10.60
2017-11-10T12:10:02.674Z,10.70
2017-11-10T12:12:33.581Z,10.70
2017-11-10T12:15:04.423Z,10.70
2017-11-10T12:17:35.912Z,10.60
2017-11-10T12:20:06.800Z,10.50
2017-11-10T12:22:37.893Z,10.30
2017-11-10T12:25:10.014Z,10.20
2017-11-10T12:27:40.841Z,10.10
2017-11-10T12:30:11.846Z,10.20
2017-11-10T12:32:43.002Z,10.20
2017-11-10T12:35:14.390Z,10.40
2017-11-10T12:37:45.781Z,10.40
2017-11-10T12:40:16.868Z,10.30
2017-11-10T12:42:48.073Z,10.20
2017-11-10T12:45:19.154Z,9.90
2017-11-10T12:47:50.370Z,10.10
2017-11-10T12:50:21.218Z,10.10
2017-11-10T12:52:52.034Z,10.00
2017-11-10T12:55:23.788Z,9.70
2017-11-10T12:57:55.358Z,9.60
2017-11-10T13:00:26.366Z,9.60
2017-11-10T13:02:57.791Z,9.70
2017-11-10T13:05:29.820Z,9.30
2017-11-10T13:08:00.549Z,9.30
2017-11-10T13:10:31.617Z,9.50
2017-11-10T13:13:03.542Z,9.50
2017-11-10T13:15:35.385Z,9.30
2017-11-10T13:18:06.345Z,9.30
2017-11-10T13:20:37.113Z,9.20
2017-11-10T13:23:08.526Z,9.20
2017-11-10T13:25:39.624Z,9.40
2017-11-10T13:28:11.528Z,9.40
2017-11-10T13:30:42.497Z,9.40
2017-11-10T13:33:13.637Z,9.40
2017-11-10T13:35:45.708Z,9.40
2017-11-10T13:38:16.880Z,9.40
2017-11-10T13:40:48.465Z,9.20
2017-11-10T13:43:20.338Z,9.10
2017-11-10T13:45:51.312Z,9.10
2017-11-10T13:48:22.152Z,9.00
2017-11-10T13:50:53.400Z,9.10
2017-11-10T13:53:24.189Z,9.00
2017-11-10T13:55:55.141Z,9.10
2017-11-10T13:58:26.438Z,8.90
2017-11-10T14:00:57.616Z,8.90
2017-11-10T14:03:28.840Z,9.10
2017-11-10T14:06:00.073Z,9.20
2017-11-10T14:08:31.084Z,9.20
2017-11-10T14:11:02.226Z,9.20
2017-11-10T14:13:33.136Z,9.20
2017-11-10T14:16:04.885Z,9.10
2017-11-10T14:18:36.317Z,9.10
2017-11-10T14:21:07.968Z,9.10
2017-11-10T14:23:39.136Z,9.00
2017-11-10T14:26:10.976Z,8.90
2017-11-10T14:28:41.963Z,8.90
2017-11-10T14:31:23.964Z,8.70
2017-11-10T14:33:55.476Z,8.60
2017-11-10T14:36:26.573Z,8.50
2017-11-10T14:38:58.437Z,8.50
2017-11-10T14:41:29.463Z,8.50
2017-11-10T14:44:00.836Z,8.60
2017-11-10T14:46:31.991Z,8.60
2017-11-10T14:49:03.892Z,8.40
2017-11-10T14:51:35.940Z,8.40
2017-11-10T14:54:06.845Z,8.40
2017-11-10T14:56:37.784Z,8.50
2017-11-10T14:59:09.953Z,8.30
2017-11-10T15:01:41.024Z,8.30
2017-11-10T15:04:13.282Z,8.10
2017-11-10T15:06:45.297Z,8.10
2017-11-10T15:09:18.408Z,8.10
2017-11-10T15:11:49.528Z,8.20
2017-11-10T15:14:20.464Z,8.30
2017-11-10T15:18:28.323Z,8.00
2017-11-10T15:21:00.119Z,8.00
2017-11-10T15:23:31.592Z,8.00
2017-11-10T15:29:19.076Z,8.10
2017-11-10T15:31:51.141Z,8.10
2017-11-10T15:34:21.945Z,8.10
2017-11-10T15:36:59.779Z,8.10
2017-11-10T15:39:30.876Z,8.10
2017-11-10T15:42:02.809Z,7.90
2017-11-10T15:44:33.940Z,7.80
2017-11-10T15:47:05.027Z,8.00
2017-11-10T15:49:36.438Z,8.00
2017-11-10T15:52:07.324Z,8.20
2017-11-10T15:55:02.944Z,8.10
2017-11-10T15:57:34.117Z,8.00
2017-11-10T16:00:06.400Z,8.10
2017-11-10T16:02:37.522Z,8.10
2017-11-10T16:05:09.301Z,8.10
2017-11-10T16:07:41.251Z,8.10
2017-11-10T16:10:12.144Z,8.10
2017-11-10T16:12:42.984Z,8.00
2017-11-10T16:15:13.925Z,8.00
2017-11-10T16:17:44.720Z,8.00
2017-11-10T16:20:15.753Z,8.00
2017-11-10T16:22:47.310Z,8.10
2017-11-10T16:25:18.194Z,8.10
2017-11-10T16:27:49.495Z,8.00
2017-11-10T16:30:21.044Z,7.90
2017-11-10T16:32:52.189Z,7.80
2017-11-10T16:35:23.881Z,7.80
2017-11-10T16:37:54.594Z,7.80
2017-11-10T16:40:25.833Z,7.90
2017-11-10T16:42:56.926Z,7.90
2017-11-10T16:45:27.764Z,7.90
2017-11-10T16:47:58.834Z,8.00
2017-11-10T16:50:29.652Z,8.00
2017-11-10T16:53:00.537Z,8.10
2017-11-10T16:55:31.627Z,8.10
2017-11-10T16:58:02.764Z,7.90
2017-11-10T17:00:33.545Z,8.00
2017-11-10T17:03:04.575Z,7.80
2017-11-10T17:05:36.605Z,7.80
2017-11-10T17:08:08.742Z,7.70
2017-11-10T17:10:39.837Z,7.70
2017-11-10T17:13:11.139Z,7.80
2017-11-10T17:15:42.270Z,7.70
2017-11-10T17:18:13.456Z,8.00
2017-11-10T17:20:45.496Z,7.70
2017-11-10T17:23:16.296Z,7.70
2017-11-10T17:25:47.637Z,7.70
2017-11-10T17:28:18.350Z,7.60
2017-11-10T17:30:49.362Z,7.60
2017-11-10T17:33:20.081Z,7.50
2017-11-10T17:35:51.374Z,7.60
2017-11-10T17:38:22.570Z,7.50
2017-11-10T17:40:53.728Z,7.40
2017-11-10T17:43:24.935Z,7.40
2017-11-10T17:45:56.024Z,7.40
2017-11-10T17:48:27.175Z,7.40
2017-11-10T17:50:58.154Z,7.50
2017-11-10T17:53:28.910Z,7.50
2017-11-10T17:56:00.491Z,7.60
2017-11-10T17:58:31.715Z,7.50
2017-11-10T18:01:03.011Z,7.60
2017-11-10T18:03:33.833Z,7.80
2017-11-10T18:06:04.944Z,7.80
2017-11-10T18:08:35.717Z,7.80
2017-11-10T18:11:06.761Z,7.70
2017-11-10T18:13:37.674Z,7.80
2017-11-10T18:16:08.799Z,7.70
2017-11-10T18:18:39.954Z,7.70
2017-11-10T18:21:10.845Z,7.70
2017-11-10T18:23:42.571Z,7.90
2017-11-10T18:26:13.877Z,7.90
2017-11-10T18:28:44.934Z,7.70
2017-11-10T18:31:16.669Z,7.70
2017-11-10T18:33:48.200Z,7.70
2017-11-10T18:37:43.917Z,7.80
2017-11-10T18:40:16.251Z,7.50
2017-11-10T18:42:47.944Z,7.50
2017-11-10T18:45:19.137Z,7.40
2017-11-10T18:47:50.056Z,7.50
2017-11-10T18:50:21.269Z,7.50
2017-11-10T18:52:53.219Z,7.30
2017-11-10T18:55:29.900Z,7.40
2017-11-10T18:58:00.905Z,7.30
2017-11-10T19:00:31.999Z,7.30
2017-11-10T19:03:03.157Z,7.40
2017-11-10T19:05:34.212Z,7.40
2017-11-10T19:08:05.326Z,7.50
2017-11-10T19:10:37.486Z,7.30
2017-11-10T19:13:08.634Z,7.30
2017-11-10T19:15:39.765Z,7.30
2017-11-10T19:18:10.795Z,7.40
2017-11-10T19:20:41.968Z,7.30
2017-11-10T19:23:13.720Z,7.30
2017-11-10T19:25:45.754Z,7.40
2017-11-10T19:28:17.554Z,7.30
2017-11-10T19:30:49.138Z,7.40
2017-11-10T19:33:20.409Z,7.40
2017-11-10T19:35:52.397Z,7.40
2017-11-10T19:38:24.196Z,7.50
2017-11-10T19:40:56.199Z,7.50
2017-11-10T19:43:27.304Z,7.40
2017-11-10T19:45:59.221Z,7.40
2017-11-10T19:48:30.127Z,7.50
2017-11-10T19:51:01.261Z,7.60
2017-11-10T19:53:32.242Z,7.40
2017-11-10T19:56:03.357Z,7.30
2017-11-10T19:58:34.556Z,7.40
2017-11-10T20:01:06.671Z,7.40
2017-11-10T20:03:37.748Z,7.40
2017-11-10T20:06:09.491Z,7.50
2017-11-10T20:08:40.475Z,7.50
2017-11-10T20:11:11.786Z,7.50
2017-11-10T20:13:43.750Z,7.50
2017-11-10T20:16:15.435Z,7.50
2017-11-10T20:18:46.266Z,7.50
2017-11-10T20:21:17.597Z,7.50
2017-11-10T20:23:48.861Z,7.60
2017-11-10T20:26:19.898Z,7.40
2017-11-10T20:28:50.975Z,7.40
2017-11-10T20:31:22.241Z,7.50
2017-11-10T20:33:54.163Z,7.30
2017-11-10T20:36:25.350Z,7.30
2017-11-10T20:38:56.144Z,7.40
2017-11-10T20:41:28.618Z,7.40
2017-11-10T20:44:00.044Z,7.30
2017-11-10T20:46:32.250Z,6.90
2017-11-10T20:49:03.481Z,6.90
2017-11-10T20:51:34.931Z,6.70
2017-11-10T20:54:06.149Z,6.70
2017-11-10T20:56:37.584Z,6.60
2017-11-10T20:59:09.378Z,6.70
2017-11-10T21:01:40.671Z,6.70
2017-11-10T21:04:12.356Z,6.80
2017-11-10T21:06:44.012Z,6.90
2017-11-10T21:09:14.996Z,7.00
2017-11-10T21:11:46.526Z,7.10
2017-11-10T21:14:17.887Z,7.10
2017-11-10T21:16:49.774Z,7.00
2017-11-10T21:19:20.859Z,7.00
2017-11-10T21:21:52.657Z,7.20
2017-11-10T21:24:24.276Z,7.30
2017-11-10T21:26:55.229Z,7.10
2017-11-10T21:29:27.063Z,7.20
2017-11-10T21:31:58.010Z,7.20
2017-11-10T21:34:29.021Z,7.10
2017-11-10T21:36:59.909Z,7.10
2017-11-10T21:39:30.850Z,7.20
2017-11-10T21:42:02.912Z,7.10
2017-11-10T21:44:33.907Z,7.10
2017-11-10T21:47:04.916Z,7.00
2017-11-10T21:49:36.466Z,7.10
2017-11-10T21:52:07.349Z,7.10
2017-11-10T21:54:40.409Z,7.00
2017-11-10T21:57:12.223Z,6.80
2017-11-10T21:59:43.584Z,6.80
2017-11-10T22:02:14.611Z,6.90
2017-11-10T22:04:45.466Z,6.90
2017-11-10T22:07:16.482Z,7.00
2017-11-10T22:09:47.512Z,7.10
2017-11-10T22:12:19.329Z,7.00
2017-11-10T22:14:50.890Z,6.90
2017-11-10T22:17:22.331Z,6.90
2017-11-10T22:19:53.486Z,6.80
2017-11-10T22:22:24.278Z,6.70
2017-11-10T22:24:56.059Z,6.70
2017-11-10T22:27:27.177Z,6.70
2017-11-10T22:29:58.737Z,6.90
2017-11-10T22:32:29.492Z,6.90
2017-11-10T22:35:00.510Z,6.90
2017-11-10T22:37:31.558Z,6.60
2017-11-10T22:40:02.701Z,6.60
2017-11-10T22:42:34.070Z,6.60
2017-11-10T22:45:06.076Z,6.50
2017-11-10T22:47:36.843Z,6.50
2017-11-10T22:50:07.853Z,6.70
2017-11-10T22:52:38.705Z,6.80
2017-11-10T22:55:09.485Z,6.80
2017-11-10T22:57:41.195Z,6.80
2017-11-10T23:00:12.914Z,6.90
2017-11-10T23:02:43.823Z,6.90
2017-11-10T23:05:15.543Z,6.80
2017-11-10T23:07:47.623Z,6.70
2017-11-10T23:10:19.168Z,6.70
2017-11-10T23:12:50.012Z,6.60
2017-11-10T23:15:21.940Z,6.60
2017-11-10T23:17:53.017Z,6.50
2017-11-10T23:20:24.554Z,6.40
2017-11-10T23:22:56.066Z,6.50
2017-11-10T23:25:27.822Z,6.90
2017-11-10T23:27:58.623Z,6.90
2017-11-10T23:30:30.525Z,6.60
2017-11-10T23:33:01.853Z,6.60
2017-11-10T23:35:33.029Z,6.50
2017-11-10T23:38:03.903Z,6.40
2017-11-10T23:40:34.872Z,6.50
2017-11-10T23:43:08.632Z,6.40
2017-11-10T23:45:41.769Z,6.50
2017-11-10T23:48:12.663Z,6.50
2017-11-10T23:50:43.975Z,6.60
2017-11-10T23:53:14.946Z,6.80
2017-11-10T23:55:45.976Z,6.90
2017-11-10T23:58:16.736Z,6.80
